sensor_id;sensor_type;location;lat;lon;timestamp;pressure;altitude;pressure_sealevel;temperature
64594;BMP280;51001;49.394;11.260;2022-07-03T00:00:08;97704.58;;;17.92
64594;BMP280;51001;49.394;11.260;2022-07-03T00:05:08;97707.4;;;17.91
64594;BMP280;51001;49.394;11.260;2022-07-03T00:10:08;97701.14;;;17.85
64594;BMP280;51001;49.394;11.260;2022-07-03T00:15:08;97703.17;;;17.76
64594;BMP280;51001;49.394;11.260;2022-07-03T00:20:08;97703.53;;;17.63
64594;BMP280;51001;49.394;11.260;2022-07-03T00:25:10;97710.27;;;17.58
64594;BMP280;51001;49.394;11.260;2022-07-03T00:30:08;97706.44;;;17.48
64594;BMP280;51001;49.394;11.260;2022-07-03T00:35:08;97700.29;;;17.45
64594;BMP280;51001;49.394;11.260;2022-07-03T00:40:08;97690.5;;;17.42
64594;BMP280;51001;49.394;11.260;2022-07-03T00:50:08;97692.61;;;17.31
64594;BMP280;51001;49.394;11.260;2022-07-03T00:55:09;97693.2;;;17.24
64594;BMP280;51001;49.394;11.260;2022-07-03T01:00:08;97693.2;;;17.16
64594;BMP280;51001;49.394;11.260;2022-07-03T01:05:10;97688.39;;;17.10
64594;BMP280;51001;49.394;11.260;2022-07-03T01:10:10;97688.44;;;16.74
64594;BMP280;51001;49.394;11.260;2022-07-03T01:15:09;97687.11;;;16.76
64594;BMP280;51001;49.394;11.260;2022-07-03T01:20:08;97687.78;;;16.71
64594;BMP280;51001;49.394;11.260;2022-07-03T01:25:12;97681.07;;;16.67
64594;BMP280;51001;49.394;11.260;2022-07-03T01:30:09;97674.11;;;16.51
64594;BMP280;51001;49.394;11.260;2022-07-03T01:35:08;97670.72;;;16.54
64594;BMP280;51001;49.394;11.260;2022-07-03T01:40:08;97671.34;;;16.47
64594;BMP280;51001;49.394;11.260;2022-07-03T01:45:09;97667.93000000001;;;16.49
64594;BMP280;51001;49.394;11.260;2022-07-03T01:50:09;97668.72;;;16.40
64594;BMP280;51001;49.394;11.260;2022-07-03T01:55:08;97661.40000000001;;;16.33
64594;BMP280;51001;49.394;11.260;2022-07-03T02:00:08;97655.2;;;16.34
64594;BMP280;51001;49.394;11.260;2022-07-03T02:05:09;97658.29;;;16.28
64594;BMP280;51001;49.394;11.260;2022-07-03T02:10:09;97660.6;;;16.22
64594;BMP280;51001;49.394;11.260;2022-07-03T02:15:09;97658.15;;;16.20
64594;BMP280;51001;49.394;11.260;2022-07-03T02:20:09;97657.06999999999;;;16.18
64594;BMP280;51001;49.394;11.260;2022-07-03T02:25:09;97654.54;;;16.12
64594;BMP280;51001;49.394;11.260;2022-07-03T02:30:09;97647.09;;;16.06
64594;BMP280;51001;49.394;11.260;2022-07-03T02:35:10;97645.84;;;15.99
64594;BMP280;51001;49.394;11.260;2022-07-03T02:45:08;97645.09000000001;;;15.98
64594;BMP280;51001;49.394;11.260;2022-07-03T02:50:08;97645.72;;;15.96
64594;BMP280;51001;49.394;11.260;2022-07-03T02:55:11;97638.83;;;15.81
64594;BMP280;51001;49.394;11.260;2022-07-03T03:00:09;97643.8;;;15.86
64594;BMP280;51001;49.394;11.260;2022-07-03T03:05:10;97645.43;;;15.81
64594;BMP280;51001;49.394;11.260;2022-07-03T03:10:08;97647.09;;;15.79
64594;BMP280;51001;49.394;11.260;2022-07-03T03:15:09;97658.34999999999;;;15.71
64594;BMP280;51001;49.394;11.260;2022-07-03T03:20:08;97660.35;;;15.74
64594;BMP280;51001;49.394;11.260;2022-07-03T03:25:08;97657.2;;;15.75
64594;BMP280;51001;49.394;11.260;2022-07-03T03:30:08;97659.07999999999;;;15.78
64594;BMP280;51001;49.394;11.260;2022-07-03T03:35:08;97663.15;;;15.81
64594;BMP280;51001;49.394;11.260;2022-07-03T03:45:09;97663.11;;;16.00
64594;BMP280;51001;49.394;11.260;2022-07-03T03:50:08;97660.38;;;16.32
64594;BMP280;51001;49.394;11.260;2022-07-03T03:55:08;97664.5;;;16.67
64594;BMP280;51001;49.394;11.260;2022-07-03T04:00:09;97661.14;;;17.05
64594;BMP280;51001;49.394;11.260;2022-07-03T04:05:08;97654.28;;;17.33
64594;BMP280;51001;49.394;11.260;2022-07-03T04:10:08;97660.75;;;17.75
64594;BMP280;51001;49.394;11.260;2022-07-03T04:15:08;97665.53;;;18.04
64594;BMP280;51001;49.394;11.260;2022-07-03T04:20:09;97666.61;;;18.64
64594;BMP280;51001;49.394;11.260;2022-07-03T04:25:08;97670.61;;;19.03
64594;BMP280;51001;49.394;11.260;2022-07-03T04:30:08;97673.68000000001;;;19.42
64594;BMP280;51001;49.394;11.260;2022-07-03T04:35:08;97671.11;;;19.88
64594;BMP280;51001;49.394;11.260;2022-07-03T04:40:08;97672.43999999999;;;20.47
64594;BMP280;51001;49.394;11.260;2022-07-03T04:45:08;97670.88;;;20.93
64594;BMP280;51001;49.394;11.260;2022-07-03T04:50:08;97665.91;;;21.38
64594;BMP280;51001;49.394;11.260;2022-07-03T04:55:08;97669.55;;;21.96
64594;BMP280;51001;49.394;11.260;2022-07-03T05:00:09;97667.53;;;22.57
64594;BMP280;51001;49.394;11.260;2022-07-03T05:05:08;97667.98999999999;;;23.28
64594;BMP280;51001;49.394;11.260;2022-07-03T05:10:08;97672.6;;;23.62
64594;BMP280;51001;49.394;11.260;2022-07-03T05:15:09;97672.96;;;24.01
64594;BMP280;51001;49.394;11.260;2022-07-03T05:20:08;97682.81;;;24.35
64594;BMP280;51001;49.394;11.260;2022-07-03T05:25:08;97683.91;;;24.64
64594;BMP280;51001;49.394;11.260;2022-07-03T05:30:08;97683.67;;;24.73
64594;BMP280;51001;49.394;11.260;2022-07-03T05:35:08;97687.45999999999;;;24.78
64594;BMP280;51001;49.394;11.260;2022-07-03T05:40:08;97683.58;;;24.96
64594;BMP280;51001;49.394;11.260;2022-07-03T05:45:09;97691.54999999999;;;25.56
64594;BMP280;51001;49.394;11.260;2022-07-03T05:50:09;97693.97;;;25.79
64594;BMP280;51001;49.394;11.260;2022-07-03T05:55:08;97685.69;;;26.64
64594;BMP280;51001;49.394;11.260;2022-07-03T06:00:09;97687.73999999999;;;26.96
64594;BMP280;51001;49.394;11.260;2022-07-03T06:05:08;97684.62;;;27.33
64594;BMP280;51001;49.394;11.260;2022-07-03T06:10:08;97691.43000000001;;;27.84
64594;BMP280;51001;49.394;11.260;2022-07-03T06:15:08;97690.69;;;28.46
64594;BMP280;51001;49.394;11.260;2022-07-03T06:20:09;97692.31;;;28.48
64594;BMP280;51001;49.394;11.260;2022-07-03T06:25:08;97710.58;;;31.57
64594;BMP280;51001;49.394;11.260;2022-07-03T06:30:09;97706.2;;;36.57
64594;BMP280;51001;49.394;11.260;2022-07-03T06:35:08;97703.61;;;38.38
64594;BMP280;51001;49.394;11.260;2022-07-03T06:40:09;97704.1;;;40.11
64594;BMP280;51001;49.394;11.260;2022-07-03T06:45:08;97704.85;;;40.27
64594;BMP280;51001;49.394;11.260;2022-07-03T06:50:08;97702.42;;;42.14
64594;BMP280;51001;49.394;11.260;2022-07-03T06:55:08;97709.0;;;42.75
64594;BMP280;51001;49.394;11.260;2022-07-03T07:00:09;97697.43999999999;;;44.60
64594;BMP280;51001;49.394;11.260;2022-07-03T07:05:08;97699.2;;;45.14
64594;BMP280;51001;49.394;11.260;2022-07-03T07:10:08;97697.86;;;46.55
64594;BMP280;51001;49.394;11.260;2022-07-03T07:15:08;97697.97;;;47.41
64594;BMP280;51001;49.394;11.260;2022-07-03T07:20:08;97697.97;;;48.34
64594;BMP280;51001;49.394;11.260;2022-07-03T07:25:08;97697.15;;;49.43
64594;BMP280;51001;49.394;11.260;2022-07-03T07:30:08;97700.61;;;49.73
64594;BMP280;51001;49.394;11.260;2022-07-03T07:35:08;97698.8;;;50.50
64594;BMP280;51001;49.394;11.260;2022-07-03T07:40:08;97692.46;;;51.49
64594;BMP280;51001;49.394;11.260;2022-07-03T07:45:08;97696.51;;;51.92
64594;BMP280;51001;49.394;11.260;2022-07-03T07:50:08;97696.67;;;52.77
64594;BMP280;51001;49.394;11.260;2022-07-03T07:55:08;97697.34;;;52.65
64594;BMP280;51001;49.394;11.260;2022-07-03T08:00:09;97701.12000000001;;;53.12
64594;BMP280;51001;49.394;11.260;2022-07-03T08:05:08;97697.16;;;53.45
64594;BMP280;51001;49.394;11.260;2022-07-03T08:10:08;97692.6;;;54.25
64594;BMP280;51001;49.394;11.260;2022-07-03T08:15:08;97687.67;;;55.03
64594;BMP280;51001;49.394;11.260;2022-07-03T08:20:09;97693.17;;;54.95
64594;BMP280;51001;49.394;11.260;2022-07-03T08:25:08;97690.37;;;57.64
64594;BMP280;51001;49.394;11.260;2022-07-03T08:30:08;97695.01000000001;;;56.16
64594;BMP280;51001;49.394;11.260;2022-07-03T08:35:08;97690.05;;;55.61
64594;BMP280;51001;49.394;11.260;2022-07-03T08:40:08;97692.95;;;58.16
64594;BMP280;51001;49.394;11.260;2022-07-03T08:45:10;97694.23000000001;;;58.82
64594;BMP280;51001;49.394;11.260;2022-07-03T08:50:08;97692.38;;;58.06
64594;BMP280;51001;49.394;11.260;2022-07-03T08:55:09;97696.77;;;58.39
64594;BMP280;51001;49.394;11.260;2022-07-03T09:00:09;97685.22;;;59.47
64594;BMP280;51001;49.394;11.260;2022-07-03T09:05:08;97687.15999999999;;;58.80
64594;BMP280;51001;49.394;11.260;2022-07-03T09:10:09;97684.49;;;59.06
64594;BMP280;51001;49.394;11.260;2022-07-03T09:15:08;97683.09000000001;;;57.50
64594;BMP280;51001;49.394;11.260;2022-07-03T09:20:08;97686.11;;;59.19
64594;BMP280;51001;49.394;11.260;2022-07-03T09:25:09;97686.11;;;58.35
64594;BMP280;51001;49.394;11.260;2022-07-03T09:30:09;97723.29999999999;;;57.19
64594;BMP280;51001;49.394;11.260;2022-07-03T09:35:12;97768.3;;;57.78
64594;BMP280;51001;49.394;11.260;2022-07-03T09:40:08;97687.15999999999;;;57.05
64594;BMP280;51001;49.394;11.260;2022-07-03T09:45:08;97756.89;;;58.39
64594;BMP280;51001;49.394;11.260;2022-07-03T09:50:08;97735.72;;;58.35
64594;BMP280;51001;49.394;11.260;2022-07-03T09:55:12;97631.47;;;48.69
64594;BMP280;51001;49.394;11.260;2022-07-03T10:00:09;97623.91;;;42.89
64594;BMP280;51001;49.394;11.260;2022-07-03T10:05:11;97625.65;;;39.81
64594;BMP280;51001;49.394;11.260;2022-07-03T10:10:08;97632.73000000001;;;38.72
64594;BMP280;51001;49.394;11.260;2022-07-03T10:15:08;97631.16;;;37.95
64594;BMP280;51001;49.394;11.260;2022-07-03T10:20:08;97634.0;;;36.78
64594;BMP280;51001;49.394;11.260;2022-07-03T10:25:08;97625.67;;;36.46
64594;BMP280;51001;49.394;11.260;2022-07-03T10:30:08;97623.87999999999;;;35.70
64594;BMP280;51001;49.394;11.260;2022-07-03T10:35:08;97627.75;;;35.35
64594;BMP280;51001;49.394;11.260;2022-07-03T10:40:09;97627.91;;;35.02
64594;BMP280;51001;49.394;11.260;2022-07-03T10:45:08;97614.39;;;34.65
64594;BMP280;51001;49.394;11.260;2022-07-03T10:50:08;97609.38;;;34.48
64594;BMP280;51001;49.394;11.260;2022-07-03T10:55:08;97611.23999999999;;;34.11
64594;BMP280;51001;49.394;11.260;2022-07-03T11:00:12;97604.71;;;33.90
64594;BMP280;51001;49.394;11.260;2022-07-03T11:05:09;97605.92;;;33.80
64594;BMP280;51001;49.394;11.260;2022-07-03T11:20:08;97597.64;;;33.44
64594;BMP280;51001;49.394;11.260;2022-07-03T11:25:08;97588.94;;;32.77
64594;BMP280;51001;49.394;11.260;2022-07-03T11:30:08;97583.09000000001;;;32.88
64594;BMP280;51001;49.394;11.260;2022-07-03T11:35:08;97581.33;;;32.49
64594;BMP280;51001;49.394;11.260;2022-07-03T11:40:08;97575.45;;;32.41
64594;BMP280;51001;49.394;11.260;2022-07-03T11:45:08;97573.55;;;32.60
64594;BMP280;51001;49.394;11.260;2022-07-03T11:50:08;97566.86;;;32.58
64594;BMP280;51001;49.394;11.260;2022-07-03T11:55:08;97567.72;;;32.53
64594;BMP280;51001;49.394;11.260;2022-07-03T12:00:09;97567.72;;;32.24
64594;BMP280;51001;49.394;11.260;2022-07-03T12:05:13;97567.22;;;32.34
64594;BMP280;51001;49.394;11.260;2022-07-03T12:10:08;97558.08;;;32.36
64594;BMP280;51001;49.394;11.260;2022-07-03T12:15:08;97558.73;;;32.45
64594;BMP280;51001;49.394;11.260;2022-07-03T12:20:08;97560.02;;;32.56
64594;BMP280;51001;49.394;11.260;2022-07-03T12:25:08;97557.09000000001;;;32.52
64594;BMP280;51001;49.394;11.260;2022-07-03T12:30:09;97544.74;;;32.09
64594;BMP280;51001;49.394;11.260;2022-07-03T12:35:08;97549.77;;;32.33
64594;BMP280;51001;49.394;11.260;2022-07-03T12:40:09;97547.0;;;32.05
64594;BMP280;51001;49.394;11.260;2022-07-03T12:45:10;97541.35;;;32.16
64594;BMP280;51001;49.394;11.260;2022-07-03T12:50:08;97535.13;;;31.72
64594;BMP280;51001;49.394;11.260;2022-07-03T12:55:08;97534.84;;;32.09
64594;BMP280;51001;49.394;11.260;2022-07-03T13:00:09;97527.89;;;32.28
64594;BMP280;51001;49.394;11.260;2022-07-03T13:05:16;97523.54000000001;;;32.42
64594;BMP280;51001;49.394;11.260;2022-07-03T13:10:08;97532.06;;;32.58
64594;BMP280;51001;49.394;11.260;2022-07-03T13:15:08;97522.39;;;32.44
64594;BMP280;51001;49.394;11.260;2022-07-03T13:20:08;97517.08;;;32.23
64594;BMP280;51001;49.394;11.260;2022-07-03T13:25:08;97509.14;;;32.43
64594;BMP280;51001;49.394;11.260;2022-07-03T13:30:09;97508.18000000001;;;32.41
64594;BMP280;51001;49.394;11.260;2022-07-03T13:35:08;97513.05;;;32.75
64594;BMP280;51001;49.394;11.260;2022-07-03T13:40:08;97508.87;;;32.85
64594;BMP280;51001;49.394;11.260;2022-07-03T13:55:08;97504.0;;;32.75
64594;BMP280;51001;49.394;11.260;2022-07-03T14:00:08;97504.0;;;32.63
64594;BMP280;51001;49.394;11.260;2022-07-03T14:05:08;97504.96;;;32.73
64594;BMP280;51001;49.394;11.260;2022-07-03T14:10:08;97497.94;;;32.56
64594;BMP280;51001;49.394;11.260;2022-07-03T14:15:08;97489.56;;;32.91
64594;BMP280;51001;49.394;11.260;2022-07-03T14:20:08;97487.62000000001;;;32.64
64594;BMP280;51001;49.394;11.260;2022-07-03T14:25:08;97470.26;;;32.80
64594;BMP280;51001;49.394;11.260;2022-07-03T14:30:08;97470.26;;;32.96
64594;BMP280;51001;49.394;11.260;2022-07-03T14:35:08;97476.54;;;32.74
64594;BMP280;51001;49.394;11.260;2022-07-03T14:40:08;97472.2;;;32.97
64594;BMP280;51001;49.394;11.260;2022-07-03T14:45:08;97472.78;;;33.15
64594;BMP280;51001;49.394;11.260;2022-07-03T14:50:08;97467.86;;;33.08
64594;BMP280;51001;49.394;11.260;2022-07-03T14:55:08;97475.23;;;32.88
64594;BMP280;51001;49.394;11.260;2022-07-03T15:00:09;97463.78;;;33.00
64594;BMP280;51001;49.394;11.260;2022-07-03T15:05:08;97460.53;;;32.70
64594;BMP280;51001;49.394;11.260;2022-07-03T15:10:08;97465.77;;;33.08
64594;BMP280;51001;49.394;11.260;2022-07-03T15:15:09;97464.51;;;33.07
64594;BMP280;51001;49.394;11.260;2022-07-03T15:20:09;97464.51;;;33.06
64594;BMP280;51001;49.394;11.260;2022-07-03T15:25:08;97457.5;;;33.05
64594;BMP280;51001;49.394;11.260;2022-07-03T15:30:09;97450.16;;;33.31
64594;BMP280;51001;49.394;11.260;2022-07-03T15:35:08;97450.16;;;33.44
64594;BMP280;51001;49.394;11.260;2022-07-03T15:40:09;97455.62999999999;;;33.62
64594;BMP280;51001;49.394;11.260;2022-07-03T15:45:10;97448.46;;;33.56
64594;BMP280;51001;49.394;11.260;2022-07-03T15:50:08;97449.83;;;33.26
64594;BMP280;51001;49.394;11.260;2022-07-03T15:55:08;97447.33;;;32.97
64594;BMP280;51001;49.394;11.260;2022-07-03T16:00:09;97444.64;;;32.95
64594;BMP280;51001;49.394;11.260;2022-07-03T16:05:09;97440.03;;;33.09
64594;BMP280;51001;49.394;11.260;2022-07-03T16:10:09;97437.08;;;32.97
64594;BMP280;51001;49.394;11.260;2022-07-03T16:15:08;97434.31;;;33.04
64594;BMP280;51001;49.394;11.260;2022-07-03T16:20:08;97427.54;;;33.31
64594;BMP280;51001;49.394;11.260;2022-07-03T16:25:08;97428.81;;;33.28
64594;BMP280;51001;49.394;11.260;2022-07-03T16:30:08;97421.57999999999;;;32.98
64594;BMP280;51001;49.394;11.260;2022-07-03T16:35:09;97428.52;;;33.01
64594;BMP280;51001;49.394;11.260;2022-07-03T16:40:08;97429.54999999999;;;32.80
64594;BMP280;51001;49.394;11.260;2022-07-03T16:45:09;97427.77;;;32.74
64594;BMP280;51001;49.394;11.260;2022-07-03T16:50:10;97429.5;;;32.47
64594;BMP280;51001;49.394;11.260;2022-07-03T16:55:08;97422.61;;;32.44
64594;BMP280;51001;49.394;11.260;2022-07-03T17:00:08;97423.24;;;32.22
64594;BMP280;51001;49.394;11.260;2022-07-03T17:05:09;97426.4;;;32.19
64594;BMP280;51001;49.394;11.260;2022-07-03T17:10:08;97422.64;;;32.05
64594;BMP280;51001;49.394;11.260;2022-07-03T17:15:08;97426.76;;;32.04
64594;BMP280;51001;49.394;11.260;2022-07-03T17:20:13;97426.87;;;31.93
64594;BMP280;51001;49.394;11.260;2022-07-03T17:25:08;97420.75;;;31.82
64594;BMP280;51001;49.394;11.260;2022-07-03T17:30:09;97424.03;;;31.72
64594;BMP280;51001;49.394;11.260;2022-07-03T17:35:16;97425.03;;;31.66
64594;BMP280;51001;49.394;11.260;2022-07-03T17:40:08;97429.54999999999;;;31.48
64594;BMP280;51001;49.394;11.260;2022-07-03T17:45:08;97426.58;;;31.39
64594;BMP280;51001;49.394;11.260;2022-07-03T17:50:08;97422.92;;;31.21
64594;BMP280;51001;49.394;11.260;2022-07-03T17:55:08;97422.94;;;31.04
64594;BMP280;51001;49.394;11.260;2022-07-03T18:00:08;97421.44;;;30.97
64594;BMP280;51001;49.394;11.260;2022-07-03T18:05:08;97415.26;;;30.86
64594;BMP280;51001;49.394;11.260;2022-07-03T18:10:08;97410.35;;;30.80
64594;BMP280;51001;49.394;11.260;2022-07-03T18:15:11;97410.35;;;30.72
64594;BMP280;51001;49.394;11.260;2022-07-03T18:20:08;97421.73;;;30.50
64594;BMP280;51001;49.394;11.260;2022-07-03T18:25:08;97421.02;;;30.33
64594;BMP280;51001;49.394;11.260;2022-07-03T18:30:08;97420.65;;;30.18
64594;BMP280;51001;49.394;11.260;2022-07-03T18:35:08;97418.0;;;30.04
64594;BMP280;51001;49.394;11.260;2022-07-03T18:40:09;97420.83;;;29.94
64594;BMP280;51001;49.394;11.260;2022-07-03T18:45:08;97426.81;;;29.62
64594;BMP280;51001;49.394;11.260;2022-07-03T18:50:08;97425.9;;;29.28
64594;BMP280;51001;49.394;11.260;2022-07-03T18:55:09;97427.20000000001;;;28.97
64594;BMP280;51001;49.394;11.260;2022-07-03T19:00:08;97432.79;;;28.78
64594;BMP280;51001;49.394;11.260;2022-07-03T19:05:08;97424.23999999999;;;28.52
64594;BMP280;51001;49.394;11.260;2022-07-03T19:10:08;97423.53;;;28.26
64594;BMP280;51001;49.394;11.260;2022-07-03T19:15:08;97420.23000000001;;;28.05
64594;BMP280;51001;49.394;11.260;2022-07-03T19:20:08;97419.08;;;27.71
64594;BMP280;51001;49.394;11.260;2022-07-03T19:25:08;97419.08;;;27.46
64594;BMP280;51001;49.394;11.260;2022-07-03T19:30:08;97424.79;;;27.19
64594;BMP280;51001;49.394;11.260;2022-07-03T19:35:08;97429.3;;;26.77
64594;BMP280;51001;49.394;11.260;2022-07-03T19:40:08;97433.68000000001;;;26.58
64594;BMP280;51001;49.394;11.260;2022-07-03T19:45:08;97445.28;;;26.51
64594;BMP280;51001;49.394;11.260;2022-07-03T19:50:08;97450.67;;;26.29
64594;BMP280;51001;49.394;11.260;2022-07-03T19:55:08;97450.67;;;26.14
64594;BMP280;51001;49.394;11.260;2022-07-03T20:00:08;97458.37;;;25.95
64594;BMP280;51001;49.394;11.260;2022-07-03T20:05:10;97462.92;;;25.79
64594;BMP280;51001;49.394;11.260;2022-07-03T20:10:08;97462.78;;;25.61
64594;BMP280;51001;49.394;11.260;2022-07-03T20:15:08;97464.08;;;25.62
64594;BMP280;51001;49.394;11.260;2022-07-03T20:20:09;97464.08;;;25.43
64594;BMP280;51001;49.394;11.260;2022-07-03T20:25:08;97473.51999999999;;;25.31
64594;BMP280;51001;49.394;11.260;2022-07-03T20:30:08;97468.02;;;25.07
64594;BMP280;51001;49.394;11.260;2022-07-03T20:35:08;97467.08;;;24.80
64594;BMP280;51001;49.394;11.260;2022-07-03T20:40:08;97465.81;;;24.69
64594;BMP280;51001;49.394;11.260;2022-07-03T20:45:08;97461.05;;;24.45
64594;BMP280;51001;49.394;11.260;2022-07-03T20:50:08;97462.14;;;24.40
64594;BMP280;51001;49.394;11.260;2022-07-03T20:55:08;97461.05;;;24.44
64594;BMP280;51001;49.394;11.260;2022-07-03T21:00:08;97456.9;;;24.34
64594;BMP280;51001;49.394;11.260;2022-07-03T21:05:08;97463.48000000001;;;24.23
64594;BMP280;51001;49.394;11.260;2022-07-03T21:10:08;97471.56;;;24.11
64594;BMP280;51001;49.394;11.260;2022-07-03T21:15:08;97468.38;;;24.00
64594;BMP280;51001;49.394;11.260;2022-07-03T21:20:08;97480.22;;;23.69
64594;BMP280;51001;49.394;11.260;2022-07-03T21:25:08;97483.04000000001;;;23.16
64594;BMP280;51001;49.394;11.260;2022-07-03T21:30:08;97481.48;;;23.25
64594;BMP280;51001;49.394;11.260;2022-07-03T21:35:08;97488.01;;;23.41
64594;BMP280;51001;49.394;11.260;2022-07-03T21:40:08;97491.58;;;23.37
64594;BMP280;51001;49.394;11.260;2022-07-03T21:45:08;97500.94;;;23.33
64594;BMP280;51001;49.394;11.260;2022-07-03T21:50:08;97506.17;;;23.18
64594;BMP280;51001;49.394;11.260;2022-07-03T21:55:08;97500.2;;;23.12
64594;BMP280;51001;49.394;11.260;2022-07-03T22:00:08;97506.19;;;22.94
64594;BMP280;51001;49.394;11.260;2022-07-03T22:05:08;97496.7;;;22.88
64594;BMP280;51001;49.394;11.260;2022-07-03T22:10:08;97495.54000000001;;;22.73
64594;BMP280;51001;49.394;11.260;2022-07-03T22:15:09;97499.99;;;22.84
64594;BMP280;51001;49.394;11.260;2022-07-03T22:20:08;97498.69;;;22.74
64594;BMP280;51001;49.394;11.260;2022-07-03T22:25:08;97493.8;;;22.53
64594;BMP280;51001;49.394;11.260;2022-07-03T22:30:08;97490.26;;;22.21
64594;BMP280;51001;49.394;11.260;2022-07-03T22:35:08;97487.23;;;22.28
64594;BMP280;51001;49.394;11.260;2022-07-03T22:40:08;97477.34;;;22.22
64594;BMP280;51001;49.394;11.260;2022-07-03T22:45:08;97483.25;;;22.21
64594;BMP280;51001;49.394;11.260;2022-07-03T22:50:08;97478.11;;;22.10
64594;BMP280;51001;49.394;11.260;2022-07-03T22:55:08;97481.76999999999;;;21.96
64594;BMP280;51001;49.394;11.260;2022-07-03T23:00:08;97475.26000000001;;;21.91
64594;BMP280;51001;49.394;11.260;2022-07-03T23:05:09;97474.89;;;21.85
64594;BMP280;51001;49.394;11.260;2022-07-03T23:10:08;97474.89;;;21.63
64594;BMP280;51001;49.394;11.260;2022-07-03T23:15:08;97477.66;;;21.66
64594;BMP280;51001;49.394;11.260;2022-07-03T23:20:08;97483.2;;;21.60
64594;BMP280;51001;49.394;11.260;2022-07-03T23:25:08;97493.19;;;21.78
64594;BMP280;51001;49.394;11.260;2022-07-03T23:30:08;97507.03;;;21.76
64594;BMP280;51001;49.394;11.260;2022-07-03T23:35:08;97508.26;;;21.68
64594;BMP280;51001;49.394;11.260;2022-07-03T23:40:08;97508.86;;;21.71
64594;BMP280;51001;49.394;11.260;2022-07-03T23:50:08;97491.27;;;21.48
64594;BMP280;51001;49.394;11.260;2022-07-03T23:55:08;97489.06;;;21.46
